Terminal Aerodrome Forecast
Issued by NWS Billings, MT

Home | Current Version | Previous Version | Graphics & Text | Print | Product List | Glossary On
Versions: 1 2 3 4 5 6 7 8 9 10 11 12 13 14 15 16 17 18 19 20 21 22 23 24 25 26 27 28 29
000
FTUS45 KBYZ 260314 AAA
TAFMLS
TAF AMD
KMLS 260314Z 2603/2624 00000KT P6SM FEW026 OVC040
     FM260500 VRB06KT P6SM FEW020
     FM261000 VRB05KT P6SM VCFG FEW005 SCT030
     FM261500 02011KT P6SM SCT030 BKN080
     FM262000 01015KT P6SM -RA BKN035 OVC060=

USA.gov is the U.S. government's official web portal to all federal, state and local government web resources and services.